createdAt,value
2018-04-18T00:00:05.543Z,11.10
2018-04-18T00:01:05.941Z,11.00
2018-04-18T00:02:05.439Z,11.00
2018-04-18T00:03:06.680Z,11.00
2018-04-18T00:04:06.596Z,11.00
2018-04-18T00:05:06.454Z,11.00
2018-04-18T00:06:06.201Z,10.90
2018-04-18T00:07:11.043Z,10.90
2018-04-18T00:08:06.446Z,10.90
2018-04-18T00:09:05.601Z,10.90
2018-04-18T00:10:05.285Z,10.90
2018-04-18T00:11:07.434Z,10.80
2018-04-18T00:12:08.901Z,10.80
2018-04-18T00:13:05.572Z,10.80
2018-04-18T00:14:07.881Z,10.80
2018-04-18T00:15:10.729Z,10.80
2018-04-18T00:16:05.527Z,10.80
2018-04-18T00:17:10.810Z,10.80
2018-04-18T00:18:06.280Z,10.80
2018-04-18T00:19:06.281Z,10.80
2018-04-18T00:20:05.573Z,10.80
2018-04-18T00:21:11.188Z,10.80
2018-04-18T00:22:11.433Z,10.80
2018-04-18T00:23:06.629Z,10.80
2018-04-18T00:24:05.950Z,10.80
2018-04-18T00:25:05.709Z,10.80
2018-04-18T00:26:06.872Z,10.80
2018-04-18T00:27:05.578Z,10.70
2018-04-18T00:28:06.619Z,10.70
2018-04-18T00:29:05.609Z,10.70
2018-04-18T00:30:06.656Z,10.70
2018-04-18T00:31:05.738Z,10.70
2018-04-18T00:32:06.300Z,10.70
2018-04-18T00:33:08.530Z,10.60
2018-04-18T00:34:06.159Z,10.60
2018-04-18T00:35:05.933Z,10.60
2018-04-18T00:36:05.605Z,10.50
2018-04-18T00:37:05.928Z,10.50
2018-04-18T00:38:05.898Z,10.60
2018-04-18T00:39:05.930Z,10.50
2018-04-18T00:40:06.517Z,10.50
2018-04-18T00:41:08.299Z,10.40
2018-04-18T00:42:05.625Z,10.50
2018-04-18T00:43:06.654Z,10.50
2018-04-18T00:44:05.573Z,10.50
2018-04-18T00:45:06.300Z,10.50
2018-04-18T00:46:06.421Z,10.50
2018-04-18T00:47:06.009Z,10.50
2018-04-18T00:48:07.049Z,10.50
2018-04-18T00:49:08.463Z,10.40
2018-04-18T00:50:06.222Z,10.40
2018-04-18T00:51:05.924Z,10.40
2018-04-18T00:52:06.089Z,10.40
2018-04-18T00:53:06.123Z,10.40
2018-04-18T00:54:06.306Z,10.40
2018-04-18T00:55:06.006Z,10.30
2018-04-18T00:56:13.774Z,10.30
2018-04-18T00:57:05.649Z,10.30
2018-04-18T00:58:06.052Z,10.30
2018-04-18T00:59:06.017Z,10.30
2018-04-18T01:00:06.232Z,10.20
2018-04-18T01:01:05.693Z,10.30
2018-04-18T01:02:09.218Z,10.30
2018-04-18T01:03:10.896Z,10.30
2018-04-18T01:04:10.586Z,10.20
2018-04-18T01:05:07.345Z,10.20
2018-04-18T01:06:05.454Z,10.30
2018-04-18T01:07:06.948Z,10.30
2018-04-18T01:08:06.004Z,10.30
2018-04-18T01:09:05.941Z,10.30
2018-04-18T01:10:06.303Z,10.20
2018-04-18T01:11:05.520Z,10.20
2018-04-18T01:12:05.509Z,10.10
2018-04-18T01:13:10.984Z,10.10
2018-04-18T01:14:08.306Z,10.00
2018-04-18T01:15:06.605Z,10.00
2018-04-18T01:16:05.528Z,10.00
2018-04-18T01:17:05.663Z,9.90
2018-04-18T01:18:05.392Z,9.90
2018-04-18T01:19:10.826Z,9.90
2018-04-18T01:20:05.657Z,9.90
2018-04-18T01:21:05.622Z,9.90
2018-04-18T01:22:05.664Z,9.90
2018-04-18T01:23:10.448Z,9.80
2018-04-18T01:24:11.059Z,9.80
2018-04-18T01:25:05.722Z,9.80
2018-04-18T01:26:12.935Z,9.80
2018-04-18T01:27:05.674Z,9.80
2018-04-18T01:28:05.655Z,9.90
2018-04-18T01:29:06.115Z,9.80
2018-04-18T01:30:06.061Z,9.80
2018-04-18T01:31:06.630Z,9.80
2018-04-18T01:32:05.952Z,9.80
2018-04-18T01:33:07.252Z,9.80
2018-04-18T01:34:11.057Z,9.80
2018-04-18T01:35:06.029Z,9.80
2018-04-18T01:36:05.653Z,9.80
2018-04-18T01:37:06.805Z,9.80
2018-04-18T01:38:07.912Z,9.70
2018-04-18T01:39:05.656Z,9.70
2018-04-18T01:40:06.742Z,9.70
2018-04-18T01:41:07.369Z,9.70
2018-04-18T01:42:08.818Z,9.70
2018-04-18T01:43:06.020Z,9.70
2018-04-18T01:44:10.692Z,9.70
2018-04-18T01:45:05.329Z,9.70
2018-04-18T01:46:05.539Z,9.70
2018-04-18T01:47:06.655Z,9.70
2018-04-18T01:48:06.387Z,9.60
2018-04-18T01:49:08.373Z,9.60
2018-04-18T01:50:06.043Z,9.60
2018-04-18T01:51:11.015Z,9.60
2018-04-18T01:52:11.073Z,9.70
2018-04-18T01:53:06.006Z,9.60
2018-04-18T01:54:06.712Z,9.70
2018-04-18T01:55:07.766Z,9.60
2018-04-18T01:56:05.994Z,9.60
2018-04-18T01:57:05.668Z,9.60
2018-04-18T01:58:11.288Z,9.70
2018-04-18T01:59:06.053Z,9.60
2018-04-18T02:00:06.565Z,9.60
2018-04-18T02:01:06.282Z,9.60
2018-04-18T02:02:05.371Z,9.60
2018-04-18T02:03:06.579Z,9.60
2018-04-18T02:04:06.338Z,9.60
2018-04-18T02:05:05.745Z,9.60
2018-04-18T02:06:07.998Z,9.60
2018-04-18T02:07:05.689Z,9.60
2018-04-18T02:08:05.684Z,9.50
2018-04-18T02:09:06.385Z,9.50
2018-04-18T02:10:06.705Z,9.50
2018-04-18T02:11:05.731Z,9.50
2018-04-18T02:12:06.050Z,9.50
2018-04-18T02:13:06.042Z,9.50
2018-04-18T02:14:08.266Z,9.40
2018-04-18T02:15:06.076Z,9.40
2018-04-18T02:16:05.669Z,9.40
2018-04-18T02:17:10.486Z,9.40
2018-04-18T02:18:07.032Z,9.40
2018-04-18T02:19:08.485Z,9.40
2018-04-18T02:20:07.329Z,9.40
2018-04-18T02:21:06.067Z,9.40
2018-04-18T02:22:06.218Z,9.30
2018-04-18T02:23:11.033Z,9.40
2018-04-18T02:24:05.697Z,9.30
2018-04-18T02:25:05.701Z,9.30
2018-04-18T02:26:06.068Z,9.30
2018-04-18T02:27:05.779Z,9.30
2018-04-18T02:28:06.145Z,9.30
2018-04-18T02:29:06.767Z,9.30
2018-04-18T02:30:05.498Z,9.30
2018-04-18T02:31:07.127Z,9.30
2018-04-18T02:32:06.321Z,9.30
2018-04-18T02:33:05.650Z,9.30
2018-04-18T02:34:06.702Z,9.20
2018-04-18T02:35:05.405Z,9.30
2018-04-18T02:36:05.725Z,9.20
2018-04-18T02:37:08.254Z,9.20
2018-04-18T02:38:08.364Z,9.20
2018-04-18T02:39:05.636Z,9.20
2018-04-18T02:40:10.380Z,9.10
2018-04-18T02:41:06.071Z,9.10
2018-04-18T02:42:11.073Z,9.00
2018-04-18T02:43:13.547Z,9.00
2018-04-18T02:44:06.204Z,9.00
2018-04-18T02:45:06.793Z,9.00
2018-04-18T02:46:06.066Z,9.00
2018-04-18T02:47:11.252Z,9.00
2018-04-18T02:48:10.920Z,9.00
2018-04-18T02:49:07.130Z,9.00
2018-04-18T02:50:05.583Z,9.00
2018-04-18T02:51:05.724Z,9.00
2018-04-18T02:52:06.482Z,9.00
2018-04-18T02:53:06.819Z,9.00
2018-04-18T02:54:05.724Z,9.00
2018-04-18T02:55:06.847Z,9.00
2018-04-18T02:56:10.676Z,9.00
2018-04-18T02:57:06.604Z,9.00
2018-04-18T02:58:06.451Z,9.00
2018-04-18T02:59:05.621Z,9.00
2018-04-18T03:00:06.957Z,9.00
2018-04-18T03:01:05.883Z,9.00
2018-04-18T03:02:10.253Z,8.90
2018-04-18T03:03:06.224Z,9.00
2018-04-18T03:04:06.004Z,9.00
2018-04-18T03:05:06.405Z,8.90
2018-04-18T03:06:06.708Z,8.90
2018-04-18T03:07:08.700Z,8.90
2018-04-18T03:08:05.507Z,8.90
2018-04-18T03:09:06.120Z,8.90
2018-04-18T03:10:06.433Z,8.90
2018-04-18T03:11:05.619Z,8.90
2018-04-18T03:12:09.017Z,8.90
2018-04-18T03:13:05.927Z,8.90
2018-04-18T03:14:06.048Z,9.00
2018-04-18T03:15:05.585Z,8.90
2018-04-18T03:16:06.791Z,8.90
2018-04-18T03:17:06.425Z,8.90
2018-04-18T03:18:10.851Z,8.90
2018-04-18T03:19:05.760Z,8.90
2018-04-18T03:20:07.399Z,8.90
2018-04-18T03:21:06.202Z,8.90
2018-04-18T03:22:05.683Z,8.90
2018-04-18T03:23:06.760Z,8.90
2018-04-18T03:24:05.946Z,8.90
2018-04-18T03:25:05.270Z,8.90
2018-04-18T03:26:11.300Z,8.90
2018-04-18T03:27:06.408Z,8.90
2018-04-18T03:28:07.160Z,8.90
2018-04-18T03:29:13.435Z,8.80
2018-04-18T03:30:08.314Z,8.90
2018-04-18T03:31:10.925Z,8.80
2018-04-18T03:32:11.027Z,8.80
2018-04-18T03:33:05.716Z,8.80
2018-04-18T03:34:05.746Z,8.90
2018-04-18T03:35:08.220Z,8.80
2018-04-18T03:36:06.092Z,8.80
2018-04-18T03:37:05.440Z,8.90
2018-04-18T03:38:06.482Z,8.90
2018-04-18T03:39:06.269Z,8.80
2018-04-18T03:40:05.773Z,8.80
2018-04-18T03:41:06.513Z,8.80
2018-04-18T03:42:10.760Z,8.80
2018-04-18T03:43:10.520Z,8.70
2018-04-18T03:44:06.213Z,8.70
2018-04-18T03:45:09.399Z,8.70
2018-04-18T03:46:06.476Z,8.60
2018-04-18T03:47:06.034Z,8.60
2018-04-18T03:48:06.294Z,8.60
2018-04-18T03:49:06.590Z,8.60
2018-04-18T03:50:06.224Z,8.60
2018-04-18T03:51:16.154Z,8.60
2018-04-18T03:52:05.795Z,8.60
2018-04-18T03:53:06.850Z,8.60
2018-04-18T03:54:05.775Z,8.60
2018-04-18T03:55:05.824Z,8.60
2018-04-18T03:56:11.048Z,8.60
2018-04-18T03:57:06.113Z,8.60
2018-04-18T03:58:05.666Z,8.60
2018-04-18T03:59:08.810Z,8.60
2018-04-18T04:00:06.857Z,8.60
2018-04-18T04:01:05.740Z,8.60
2018-04-18T04:02:10.327Z,8.60
2018-04-18T04:03:06.264Z,8.60
2018-04-18T04:04:07.948Z,8.50
2018-04-18T04:05:05.812Z,8.50
2018-04-18T04:06:07.999Z,8.50
2018-04-18T04:07:05.672Z,8.50
2018-04-18T04:08:11.067Z,8.50
2018-04-18T04:09:05.889Z,8.50
2018-04-18T04:10:06.511Z,8.50
2018-04-18T04:11:08.697Z,8.40
2018-04-18T04:12:05.676Z,8.40
2018-04-18T04:13:08.717Z,8.40
2018-04-18T04:14:05.881Z,8.40
2018-04-18T04:15:06.274Z,8.40
2018-04-18T04:16:05.699Z,8.40
2018-04-18T04:17:05.835Z,8.40
2018-04-18T04:18:10.605Z,8.40
2018-04-18T04:19:13.692Z,8.50
2018-04-18T04:20:05.519Z,8.40
2018-04-18T04:21:11.445Z,8.40
2018-04-18T04:22:06.094Z,8.40
2018-04-18T04:23:08.225Z,8.40
2018-04-18T04:24:05.811Z,8.40
2018-04-18T04:25:11.223Z,8.40
2018-04-18T04:26:07.176Z,8.40
2018-04-18T04:27:06.473Z,8.40
2018-04-18T04:28:06.303Z,8.40
2018-04-18T04:29:06.515Z,8.50
2018-04-18T04:30:06.273Z,8.50
2018-04-18T04:31:11.229Z,8.50
2018-04-18T04:32:05.764Z,8.50
2018-04-18T04:33:06.071Z,8.50
2018-04-18T04:34:05.778Z,8.50
2018-04-18T04:35:05.813Z,8.50
2018-04-18T04:36:06.224Z,8.50
2018-04-18T04:37:06.546Z,8.50
2018-04-18T04:38:05.796Z,8.50
2018-04-18T04:39:05.878Z,8.50
2018-04-18T04:40:05.808Z,8.50
2018-04-18T04:41:06.709Z,8.50
2018-04-18T04:42:08.593Z,8.50
2018-04-18T04:43:05.678Z,8.50
2018-04-18T04:44:06.524Z,8.50
2018-04-18T04:45:05.612Z,8.60
2018-04-18T04:46:05.831Z,8.60
2018-04-18T04:47:06.442Z,8.60
2018-04-18T04:48:08.825Z,8.70
2018-04-18T04:49:05.858Z,8.70
2018-04-18T04:50:05.789Z,8.70
2018-04-18T04:51:06.229Z,8.80
2018-04-18T04:52:05.797Z,8.80
2018-04-18T04:53:06.831Z,8.90
2018-04-18T04:54:06.918Z,8.90
2018-04-18T04:55:11.053Z,9.00
2018-04-18T04:56:08.086Z,9.10
2018-04-18T04:57:06.500Z,9.10
2018-04-18T04:58:05.506Z,9.20
2018-04-18T04:59:05.829Z,9.30
2018-04-18T05:00:05.570Z,9.30
2018-04-18T05:01:06.934Z,9.50
2018-04-18T05:02:10.614Z,9.60
2018-04-18T05:03:06.888Z,9.70
2018-04-18T05:04:06.159Z,9.80
2018-04-18T05:05:05.531Z,9.90
2018-04-18T05:06:05.868Z,10.00
2018-04-18T05:07:06.222Z,10.20
2018-04-18T05:08:05.655Z,10.30
2018-04-18T05:09:06.193Z,10.40
2018-04-18T05:10:06.983Z,10.50
2018-04-18T05:11:06.549Z,10.70
2018-04-18T05:12:08.109Z,10.90
2018-04-18T05:13:06.284Z,10.90
2018-04-18T05:14:05.728Z,11.10
2018-04-18T05:15:09.439Z,11.30
2018-04-18T05:16:11.446Z,11.40
2018-04-18T05:17:15.885Z,11.50
2018-04-18T05:18:05.924Z,11.50
2018-04-18T05:19:13.652Z,11.70
2018-04-18T05:20:05.638Z,11.70
2018-04-18T05:21:05.919Z,11.80
2018-04-18T05:22:06.974Z,11.90
2018-04-18T05:23:08.632Z,12.20
2018-04-18T05:24:05.743Z,12.20
2018-04-18T05:25:06.291Z,12.30
2018-04-18T05:26:08.605Z,12.50
2018-04-18T05:27:11.350Z,12.60
2018-04-18T05:28:06.681Z,12.70
2018-04-18T05:29:05.571Z,12.80
2018-04-18T05:30:08.267Z,13.10
2018-04-18T05:31:05.781Z,13.10
2018-04-18T05:32:05.746Z,13.20
2018-04-18T05:33:08.598Z,13.50
2018-04-18T05:34:07.681Z,13.60
2018-04-18T05:35:05.648Z,13.60
2018-04-18T05:36:11.243Z,13.90
2018-04-18T05:37:05.931Z,13.80
2018-04-18T05:38:06.264Z,14.00
2018-04-18T05:39:10.305Z,14.20
2018-04-18T05:40:06.282Z,14.20
2018-04-18T05:41:06.276Z,14.40
2018-04-18T05:42:08.509Z,14.60
2018-04-18T05:43:06.869Z,14.60
2018-04-18T05:44:06.452Z,14.70
2018-04-18T05:45:06.667Z,14.80
2018-04-18T05:46:05.984Z,14.90
2018-04-18T05:47:06.378Z,15.00
2018-04-18T05:48:05.958Z,15.10
2018-04-18T05:49:07.240Z,15.20
2018-04-18T05:50:11.155Z,15.50
2018-04-18T05:51:10.753Z,15.50
2018-04-18T05:52:05.774Z,15.50
2018-04-18T05:53:05.884Z,15.60
2018-04-18T05:54:06.257Z,15.70
2018-04-18T05:55:06.657Z,15.80
2018-04-18T05:56:05.990Z,15.90
2018-04-18T05:57:07.108Z,15.90
2018-04-18T05:58:07.087Z,16.00
2018-04-18T05:59:08.483Z,16.10
2018-04-18T06:00:05.962Z,16.10
2018-04-18T06:01:05.891Z,16.10
2018-04-18T06:02:05.852Z,16.10
2018-04-18T06:03:10.355Z,16.20
2018-04-18T06:04:05.613Z,16.20
2018-04-18T06:05:06.728Z,16.30
2018-04-18T06:06:05.817Z,16.40
2018-04-18T06:07:05.871Z,16.40
2018-04-18T06:08:05.827Z,16.40
2018-04-18T06:09:05.626Z,16.50
2018-04-18T06:10:05.911Z,16.50
2018-04-18T06:11:09.764Z,16.60
2018-04-18T06:12:05.784Z,16.60
2018-04-18T06:13:05.810Z,16.60
2018-04-18T06:14:16.099Z,16.70
2018-04-18T06:15:05.933Z,16.70
2018-04-18T06:16:05.860Z,16.80
2018-04-18T06:17:06.876Z,16.80
2018-04-18T06:18:06.628Z,16.90
2018-04-18T06:19:06.720Z,17.00
2018-04-18T06:20:06.250Z,17.00
2018-04-18T06:21:06.617Z,17.10
2018-04-18T06:22:08.516Z,17.20
2018-04-18T06:23:06.750Z,17.20
2018-04-18T06:24:08.885Z,17.30
2018-04-18T06:25:05.882Z,17.30
2018-04-18T06:26:15.248Z,17.40
2018-04-18T06:27:05.922Z,17.40
2018-04-18T06:28:06.878Z,17.50
2018-04-18T06:29:06.234Z,17.60
2018-04-18T06:30:10.595Z,17.60
2018-04-18T06:31:13.598Z,17.70
2018-04-18T06:32:06.749Z,17.70
2018-04-18T06:33:11.214Z,17.70
2018-04-18T06:34:11.060Z,17.70
2018-04-18T06:35:05.943Z,17.70
2018-04-18T06:36:05.641Z,17.70
2018-04-18T06:37:05.953Z,17.80
2018-04-18T06:38:06.639Z,17.80
2018-04-18T06:39:08.694Z,17.90
2018-04-18T06:40:10.457Z,17.90
2018-04-18T06:41:06.016Z,17.90
2018-04-18T06:42:05.739Z,17.90
2018-04-18T06:43:05.933Z,18.00
2018-04-18T06:44:06.311Z,18.10
2018-04-18T06:45:05.605Z,18.10
2018-04-18T06:46:11.075Z,18.20
2018-04-18T06:47:10.538Z,18.20
2018-04-18T06:48:05.960Z,18.20
2018-04-18T06:49:06.963Z,18.30
2018-04-18T06:50:05.960Z,18.40
2018-04-18T06:51:06.135Z,18.40
2018-04-18T06:52:08.439Z,18.60
2018-04-18T06:53:11.247Z,18.60
2018-04-18T06:54:06.204Z,18.60
2018-04-18T06:55:08.453Z,18.60
2018-04-18T06:56:07.261Z,18.60
2018-04-18T06:57:06.456Z,18.70
2018-04-18T06:58:05.963Z,18.70
2018-04-18T06:59:06.601Z,18.80
2018-04-18T07:00:08.500Z,18.80
2018-04-18T07:01:06.266Z,18.80
2018-04-18T07:02:05.952Z,18.80
2018-04-18T07:03:10.824Z,18.80
2018-04-18T07:04:05.950Z,18.80
2018-04-18T07:05:07.302Z,18.80
2018-04-18T07:06:05.401Z,18.90
2018-04-18T07:07:11.157Z,18.90
2018-04-18T07:08:05.903Z,18.90
2018-04-18T07:09:10.798Z,19.00
2018-04-18T07:10:08.186Z,19.10
2018-04-18T07:11:05.736Z,19.00
2018-04-18T07:12:08.414Z,19.20
2018-04-18T07:13:06.373Z,19.20
2018-04-18T07:14:06.334Z,19.20
2018-04-18T07:15:05.744Z,19.10
2018-04-18T07:16:06.328Z,19.20
2018-04-18T07:17:08.161Z,19.20
2018-04-18T07:18:06.063Z,19.10
2018-04-18T07:19:06.044Z,19.20
2018-04-18T07:20:05.354Z,19.20
2018-04-18T07:21:08.219Z,19.20
2018-04-18T07:22:09.037Z,19.30
2018-04-18T07:23:05.966Z,19.30
2018-04-18T07:24:05.646Z,19.30
2018-04-18T07:25:05.354Z,19.30
2018-04-18T07:26:08.660Z,19.40
2018-04-18T07:27:05.989Z,19.40
2018-04-18T07:28:06.060Z,19.40
2018-04-18T07:29:05.868Z,19.40
2018-04-18T07:30:05.448Z,19.40
2018-04-18T07:31:05.459Z,19.40
2018-04-18T07:32:08.319Z,19.60
2018-04-18T07:33:06.057Z,19.60
2018-04-18T07:34:06.212Z,19.60
2018-04-18T07:35:10.579Z,19.60
2018-04-18T07:36:11.444Z,19.60
2018-04-18T07:37:11.163Z,19.70
2018-04-18T07:38:05.920Z,19.70
2018-04-18T07:39:07.206Z,19.70
2018-04-18T07:40:06.101Z,19.80
2018-04-18T07:41:08.046Z,19.80
2018-04-18T07:42:08.454Z,19.90
2018-04-18T07:43:11.132Z,19.80
2018-04-18T07:44:05.994Z,19.90
2018-04-18T07:45:05.896Z,19.90
2018-04-18T07:46:05.961Z,19.90
2018-04-18T07:47:06.724Z,19.90
2018-04-18T07:48:06.016Z,19.90
2018-04-18T07:49:05.971Z,19.90
2018-04-18T07:50:05.754Z,19.90
2018-04-18T07:51:08.654Z,20.00
2018-04-18T07:52:06.840Z,19.90
2018-04-18T07:53:05.589Z,20.00
2018-04-18T07:54:06.023Z,20.00
2018-04-18T07:55:05.892Z,20.00
2018-04-18T07:56:06.766Z,20.00
2018-04-18T07:57:10.427Z,20.00
2018-04-18T07:58:06.108Z,20.00
2018-04-18T07:59:05.460Z,20.00
2018-04-18T08:00:06.419Z,20.00
2018-04-18T08:01:06.041Z,20.00
2018-04-18T08:02:06.033Z,20.00
2018-04-18T08:03:10.957Z,20.00
2018-04-18T08:04:06.660Z,19.90
2018-04-18T08:05:08.252Z,20.00
2018-04-18T08:06:05.941Z,20.00
2018-04-18T08:07:06.285Z,20.00
2018-04-18T08:08:05.982Z,20.10
2018-04-18T08:09:05.477Z,20.10
2018-04-18T08:10:05.391Z,20.10
2018-04-18T08:11:05.703Z,20.00
2018-04-18T08:12:05.753Z,20.00
2018-04-18T08:13:07.054Z,20.00
2018-04-18T08:14:06.461Z,20.10
2018-04-18T08:15:07.261Z,20.10
2018-04-18T08:16:05.997Z,20.10
2018-04-18T08:17:06.007Z,20.10
2018-04-18T08:18:10.537Z,20.20
2018-04-18T08:19:11.094Z,20.20
2018-04-18T08:20:07.194Z,20.30
2018-04-18T08:21:06.036Z,20.30
2018-04-18T08:22:06.428Z,20.30
2018-04-18T08:23:06.856Z,20.30
2018-04-18T08:24:05.872Z,20.40
2018-04-18T08:25:06.868Z,20.40
2018-04-18T08:26:05.987Z,20.40
2018-04-18T08:27:08.115Z,20.50
2018-04-18T08:28:06.039Z,20.50
2018-04-18T08:29:05.940Z,20.60
2018-04-18T08:30:05.783Z,20.50
2018-04-18T08:31:06.636Z,20.60
2018-04-18T08:32:05.822Z,20.60
2018-04-18T08:33:06.046Z,20.60
2018-04-18T08:34:05.911Z,20.70
2018-04-18T08:35:05.431Z,20.70
2018-04-18T08:36:08.505Z,20.80
2018-04-18T08:37:08.765Z,20.80
2018-04-18T08:38:05.524Z,20.80
2018-04-18T08:39:06.011Z,20.80
2018-04-18T08:40:05.834Z,20.90
2018-04-18T08:41:06.696Z,20.90
2018-04-18T08:42:08.288Z,21.00
2018-04-18T08:43:06.065Z,20.90
2018-04-18T08:44:05.509Z,21.00
2018-04-18T08:45:06.255Z,21.00
2018-04-18T08:46:06.742Z,21.10
2018-04-18T08:47:06.099Z,21.10
2018-04-18T08:48:08.496Z,21.20
2018-04-18T08:49:13.808Z,21.20
2018-04-18T08:50:07.967Z,21.30
2018-04-18T08:51:05.635Z,21.20
2018-04-18T08:52:05.570Z,21.30
2018-04-18T08:53:06.733Z,21.30
2018-04-18T08:54:13.407Z,21.40
2018-04-18T08:55:14.251Z,21.40
2018-04-18T08:56:05.945Z,21.40
2018-04-18T08:57:05.471Z,21.40
2018-04-18T08:58:10.943Z,21.50
2018-04-18T08:59:10.542Z,21.50
2018-04-18T09:00:10.808Z,21.50
2018-04-18T09:01:06.070Z,21.50
2018-04-18T09:02:06.048Z,21.50
2018-04-18T09:03:10.607Z,21.60
2018-04-18T09:04:06.140Z,21.60
2018-04-18T09:05:08.308Z,21.60
2018-04-18T09:06:06.112Z,21.60
2018-04-18T09:07:05.840Z,21.70
2018-04-18T09:08:05.766Z,21.70
2018-04-18T09:09:05.587Z,21.80
2018-04-18T09:10:06.625Z,21.80
2018-04-18T09:11:05.453Z,21.80
2018-04-18T09:12:06.043Z,21.80
2018-04-18T09:13:08.656Z,21.90
2018-04-18T09:14:06.710Z,21.90
2018-04-18T09:15:05.999Z,21.90
2018-04-18T09:16:05.974Z,22.00
2018-04-18T09:17:05.901Z,22.00
2018-04-18T09:18:05.774Z,22.10
2018-04-18T09:19:06.458Z,22.10
2018-04-18T09:20:13.416Z,22.10
2018-04-18T09:21:11.046Z,22.20
2018-04-18T09:22:06.603Z,22.20
2018-04-18T09:23:11.673Z,22.30
2018-04-18T09:24:05.830Z,22.20
2018-04-18T09:25:05.538Z,22.30
2018-04-18T09:26:05.966Z,22.30
2018-04-18T09:27:06.760Z,22.30
2018-04-18T09:28:08.368Z,22.30
2018-04-18T09:29:06.841Z,22.30
2018-04-18T09:30:10.780Z,22.30
2018-04-18T09:31:08.503Z,22.40
2018-04-18T09:32:06.428Z,22.30
2018-04-18T09:33:05.968Z,22.30
2018-04-18T09:34:05.977Z,22.40
2018-04-18T09:35:06.478Z,22.40
2018-04-18T09:36:06.803Z,22.50
2018-04-18T09:37:06.528Z,22.50
2018-04-18T09:38:06.474Z,22.50
2018-04-18T09:39:06.111Z,22.50
2018-04-18T09:40:05.576Z,22.50
2018-04-18T09:41:05.682Z,22.60
2018-04-18T09:42:05.845Z,22.60
2018-04-18T09:43:06.487Z,22.70
2018-04-18T09:44:08.143Z,22.70
2018-04-18T09:45:06.045Z,22.70
2018-04-18T09:46:08.658Z,22.70
2018-04-18T09:47:08.732Z,22.80
2018-04-18T09:48:10.511Z,22.80
2018-04-18T09:49:06.531Z,22.80
2018-04-18T09:50:06.152Z,22.80
2018-04-18T09:51:08.111Z,22.90
2018-04-18T09:52:06.419Z,22.90
2018-04-18T09:53:06.109Z,22.90
2018-04-18T09:54:05.879Z,23.00
2018-04-18T09:55:06.066Z,23.00
2018-04-18T09:56:07.079Z,23.00
2018-04-18T09:57:05.554Z,23.00
2018-04-18T09:58:10.436Z,23.00
2018-04-18T09:59:06.007Z,23.00
2018-04-18T10:00:06.020Z,23.00
2018-04-18T10:01:06.075Z,23.00
2018-04-18T10:02:05.834Z,23.00
2018-04-18T10:03:06.471Z,23.10
2018-04-18T10:04:05.879Z,23.10
2018-04-18T10:05:06.589Z,23.20
2018-04-18T10:06:06.404Z,23.20
2018-04-18T10:07:05.833Z,23.20
2018-04-18T10:08:06.483Z,23.20
2018-04-18T10:09:06.012Z,23.20
2018-04-18T10:10:06.808Z,23.10
2018-04-18T10:11:06.444Z,23.20
2018-04-18T10:12:05.636Z,23.10
2018-04-18T10:13:05.614Z,23.10
2018-04-18T10:14:06.965Z,23.10
2018-04-18T10:15:08.209Z,23.10
2018-04-18T10:16:07.253Z,23.10
2018-04-18T10:17:08.791Z,23.20
2018-04-18T10:18:05.866Z,23.20
2018-04-18T10:19:06.156Z,23.30
2018-04-18T10:20:06.086Z,23.30
2018-04-18T10:21:05.524Z,23.40
2018-04-18T10:22:06.223Z,23.40
2018-04-18T10:23:07.700Z,23.40
2018-04-18T10:24:10.467Z,23.40
2018-04-18T10:25:07.223Z,23.40
2018-04-18T10:26:11.188Z,23.50
2018-04-18T10:27:08.466Z,23.50
2018-04-18T10:28:06.135Z,23.50
2018-04-18T10:29:06.112Z,23.40
2018-04-18T10:30:05.714Z,23.40
2018-04-18T10:31:05.854Z,23.40
2018-04-18T10:32:05.779Z,23.40
2018-04-18T10:33:15.746Z,23.40
2018-04-18T10:34:05.659Z,23.40
2018-04-18T10:35:08.889Z,23.50
2018-04-18T10:36:08.135Z,23.50
2018-04-18T10:37:05.824Z,23.50
2018-04-18T10:38:08.218Z,23.50
2018-04-18T10:39:08.744Z,23.60
2018-04-18T10:40:06.025Z,23.60
2018-04-18T10:41:10.891Z,23.60
2018-04-18T10:42:10.570Z,23.60
2018-04-18T10:43:08.293Z,23.60
2018-04-18T10:44:06.247Z,23.60
2018-04-18T10:45:06.635Z,23.70
2018-04-18T10:46:06.149Z,23.70
2018-04-18T10:47:06.185Z,23.70
2018-04-18T10:48:06.080Z,23.70
2018-04-18T10:49:09.008Z,23.70
2018-04-18T10:50:06.112Z,23.70
2018-04-18T10:51:05.946Z,23.70
2018-04-18T10:52:05.705Z,23.80
2018-04-18T10:53:06.125Z,23.80
2018-04-18T10:54:07.001Z,23.80
2018-04-18T10:55:10.419Z,23.80
2018-04-18T10:56:06.195Z,23.80
2018-04-18T10:57:09.002Z,23.80
2018-04-18T10:58:05.902Z,23.80
2018-04-18T10:59:10.535Z,23.70
2018-04-18T11:00:11.074Z,23.70
2018-04-18T11:01:08.128Z,23.70
2018-04-18T11:02:05.325Z,23.70
2018-04-18T11:03:06.410Z,23.70
2018-04-18T11:04:06.275Z,23.70
2018-04-18T11:05:06.428Z,23.70
2018-04-18T11:06:06.112Z,23.70
2018-04-18T11:07:10.883Z,23.70
2018-04-18T11:08:06.446Z,23.70
2018-04-18T11:09:05.954Z,23.70
2018-04-18T11:10:11.371Z,23.60
2018-04-18T11:11:06.233Z,23.70
2018-04-18T11:12:14.445Z,23.70
2018-04-18T11:13:06.594Z,23.70
2018-04-18T11:14:05.905Z,23.70
2018-04-18T11:15:07.780Z,23.80
2018-04-18T11:16:05.627Z,23.80
2018-04-18T11:17:05.732Z,23.80
2018-04-18T11:18:06.553Z,23.80
2018-04-18T11:19:10.483Z,23.80
2018-04-18T11:20:07.975Z,23.70
2018-04-18T11:21:10.873Z,23.80
2018-04-18T11:22:05.619Z,23.80
2018-04-18T11:23:08.514Z,23.80
2018-04-18T11:24:12.872Z,23.80
2018-04-18T11:25:06.855Z,23.80
2018-04-18T11:26:06.082Z,23.80
2018-04-18T11:27:05.703Z,23.80
2018-04-18T11:28:08.184Z,23.90
2018-04-18T11:29:06.218Z,23.80
2018-04-18T11:30:10.520Z,23.80
2018-04-18T11:31:06.356Z,23.80
2018-04-18T11:32:05.990Z,23.80
2018-04-18T11:33:10.499Z,23.80
2018-04-18T11:34:06.222Z,23.80
2018-04-18T11:35:05.953Z,23.80
2018-04-18T11:36:05.847Z,23.80
2018-04-18T11:37:05.758Z,23.80
2018-04-18T11:38:11.097Z,23.80
2018-04-18T11:39:05.899Z,23.70
2018-04-18T11:40:05.739Z,23.70
2018-04-18T11:41:05.873Z,23.80
2018-04-18T11:42:06.248Z,23.80
2018-04-18T11:43:05.969Z,23.80
2018-04-18T11:44:05.326Z,23.80
2018-04-18T11:45:06.301Z,23.80
2018-04-18T11:46:13.076Z,23.80
2018-04-18T11:47:08.480Z,23.80
2018-04-18T11:48:05.338Z,23.80
2018-04-18T11:49:05.962Z,23.80
2018-04-18T11:50:05.673Z,23.80
2018-04-18T11:51:05.719Z,23.80
2018-04-18T11:52:05.699Z,23.80
2018-04-18T11:53:10.974Z,23.80
2018-04-18T11:54:05.634Z,23.80
2018-04-18T11:55:11.413Z,23.80
2018-04-18T11:56:07.049Z,23.80
2018-04-18T11:57:06.139Z,23.80
2018-04-18T11:58:05.990Z,23.80
2018-04-18T11:59:10.909Z,23.90
2018-04-18T12:00:06.290Z,23.80
2018-04-18T12:01:07.264Z,23.90
2018-04-18T12:02:05.986Z,23.90
2018-04-18T12:03:06.108Z,24.00
2018-04-18T12:04:06.009Z,24.00
2018-04-18T12:05:06.058Z,24.00
2018-04-18T12:06:06.625Z,24.00
2018-04-18T12:07:08.583Z,23.90
2018-04-18T12:08:06.130Z,24.00
2018-04-18T12:09:05.351Z,24.00
2018-04-18T12:10:13.111Z,23.90
2018-04-18T12:11:06.644Z,23.90
2018-04-18T12:12:10.359Z,24.00
2018-04-18T12:13:06.137Z,24.00
2018-04-18T12:14:05.978Z,24.00
2018-04-18T12:15:06.281Z,24.00
2018-04-18T12:16:08.930Z,24.00
2018-04-18T12:17:06.835Z,24.00
2018-04-18T12:18:06.385Z,24.00
2018-04-18T12:19:11.069Z,24.00
2018-04-18T12:20:07.273Z,23.90
2018-04-18T12:21:06.644Z,23.90
2018-04-18T12:22:08.231Z,23.90
2018-04-18T12:23:06.346Z,23.90
2018-04-18T12:24:07.968Z,24.00
2018-04-18T12:25:06.168Z,24.00
2018-04-18T12:26:06.022Z,24.00
2018-04-18T12:27:07.340Z,24.10
2018-04-18T12:28:08.848Z,24.10
2018-04-18T12:29:13.148Z,24.10
2018-04-18T12:30:10.743Z,24.10
2018-04-18T12:31:05.711Z,24.10
2018-04-18T12:32:06.345Z,24.00
2018-04-18T12:33:05.713Z,24.00
2018-04-18T12:34:06.383Z,24.10
2018-04-18T12:35:06.158Z,24.10
2018-04-18T12:36:05.491Z,24.10
2018-04-18T12:37:10.583Z,24.10
2018-04-18T12:38:06.291Z,24.10
2018-04-18T12:39:05.849Z,24.10
2018-04-18T12:40:10.931Z,24.10
2018-04-18T12:41:05.684Z,24.10
2018-04-18T12:42:06.347Z,24.10
2018-04-18T12:43:06.148Z,24.10
2018-04-18T12:44:06.841Z,24.20
2018-04-18T12:45:06.325Z,24.10
2018-04-18T12:46:05.708Z,24.10
2018-04-18T12:47:06.187Z,24.10
2018-04-18T12:48:05.935Z,24.10
2018-04-18T12:49:06.726Z,24.10
2018-04-18T12:50:08.335Z,24.10
2018-04-18T12:51:08.284Z,24.10
2018-04-18T12:52:06.924Z,24.10
2018-04-18T12:53:07.247Z,24.00
2018-04-18T12:54:08.437Z,24.00
2018-04-18T12:55:06.295Z,24.00
2018-04-18T12:56:07.990Z,24.00
2018-04-18T12:57:06.304Z,24.00
2018-04-18T12:58:08.309Z,24.00
2018-04-18T12:59:06.343Z,24.00
2018-04-18T13:00:10.834Z,24.00